createdAt,value
2019-04-05T00:03:02.754Z,4.90
2019-04-05T00:05:32.292Z,3.40
2019-04-05T00:08:01.878Z,5.00
2019-04-05T00:10:31.437Z,5.00
2019-04-05T00:15:30.209Z,5.00
2019-04-05T00:20:26.633Z,5.10
2019-04-05T00:22:56.534Z,5.10
2019-04-05T00:25:26.081Z,4.30
2019-04-05T00:27:55.678Z,5.10
2019-04-05T00:30:25.234Z,5.10
2019-04-05T00:32:54.879Z,5.10
2019-04-05T00:35:24.505Z,5.00
2019-04-05T00:42:52.158Z,5.00
2019-04-05T00:45:28.042Z,5.10
2019-04-05T00:47:53.217Z,5.00
2019-04-05T00:50:22.764Z,4.80
2019-04-05T00:52:52.628Z,4.80
2019-04-05T00:55:22.293Z,4.90
2019-04-05T00:57:51.930Z,4.90
2019-04-05T01:00:21.761Z,5.00
2019-04-05T01:02:51.294Z,5.00
2019-04-05T01:07:50.325Z,5.00
2019-04-05T01:10:20.309Z,5.00
2019-04-05T01:12:50.061Z,4.90
2019-04-05T01:15:19.788Z,4.80
2019-04-05T01:17:49.437Z,6.20
2019-04-05T01:20:18.997Z,4.60
2019-04-05T01:22:49.043Z,4.50
2019-04-05T01:25:18.744Z,4.50
2019-04-05T01:27:48.648Z,4.60
2019-04-05T01:30:18.465Z,4.70
2019-04-05T01:32:48.586Z,4.70
2019-04-05T01:35:17.461Z,6.20
2019-04-05T01:40:16.573Z,4.60
2019-04-05T01:42:47.171Z,4.70
2019-04-05T01:45:17.017Z,4.70
2019-04-05T01:50:16.186Z,4.40
2019-04-05T01:52:46.659Z,4.30
2019-04-05T01:55:16.521Z,4.20
2019-04-05T01:57:46.053Z,4.30
2019-04-05T02:00:16.749Z,4.10
2019-04-05T02:02:46.497Z,4.20
2019-04-05T02:05:16.273Z,4.20
2019-04-05T02:07:46.101Z,4.30
2019-04-05T02:10:16.043Z,4.40
2019-04-05T02:12:45.702Z,4.30
2019-04-05T02:15:27.175Z,4.30
2019-04-05T02:17:57.438Z,4.20
2019-04-05T02:22:56.409Z,4.10
2019-04-05T02:25:26.076Z,4.10
2019-04-05T02:27:56.018Z,4.20
2019-04-05T02:30:26.000Z,4.20
2019-04-05T02:32:55.638Z,4.20
2019-04-05T02:35:25.278Z,4.20
2019-04-05T02:37:54.840Z,4.30
2019-04-05T02:42:58.114Z,4.40
2019-04-05T02:45:31.564Z,4.50
2019-04-05T02:48:04.554Z,4.50
2019-04-05T02:53:06.876Z,4.50
2019-04-05T03:00:35.982Z,4.50
2019-04-05T03:03:06.479Z,4.50
2019-04-05T03:05:37.949Z,4.90
2019-04-05T03:11:09.181Z,4.70
2019-04-05T03:13:47.313Z,4.60
2019-04-05T03:18:55.326Z,4.50
2019-04-05T03:21:27.729Z,4.50
2019-04-05T03:24:00.461Z,4.70
2019-04-05T03:26:33.116Z,4.60
2019-04-05T03:29:06.150Z,4.60
2019-04-05T03:31:36.428Z,4.60
2019-04-05T03:34:06.498Z,4.60
2019-04-05T03:36:37.039Z,4.70
2019-04-05T03:41:37.909Z,4.70
2019-04-05T03:49:06.471Z,4.70
2019-04-05T03:54:06.327Z,4.70
2019-04-05T03:56:37.970Z,4.70
2019-04-05T04:04:05.827Z,4.70
2019-04-05T04:06:35.784Z,5.70
2019-04-05T04:09:06.645Z,4.60
2019-04-05T04:14:06.307Z,4.50
2019-04-05T04:16:36.250Z,4.60
2019-04-05T04:19:05.942Z,4.50
2019-04-05T04:21:42.970Z,4.60
2019-04-05T04:24:13.003Z,4.60
2019-04-05T04:26:43.043Z,4.50
2019-04-05T04:29:13.482Z,4.50
2019-04-05T04:31:43.242Z,4.60
2019-04-05T04:34:13.107Z,4.50
2019-04-05T04:36:42.742Z,4.60
2019-04-05T04:39:12.291Z,4.60
2019-04-05T04:41:42.116Z,4.60
2019-04-05T04:44:11.803Z,4.60
2019-04-05T04:46:41.531Z,4.60
2019-04-05T04:54:10.073Z,4.60
2019-04-05T04:56:40.303Z,4.60
2019-04-05T04:59:09.860Z,4.60
2019-04-05T05:04:09.077Z,4.60
2019-04-05T05:06:38.843Z,4.60
2019-04-05T05:11:38.074Z,5.80
2019-04-05T05:16:37.144Z,4.40
2019-04-05T05:21:36.241Z,4.60
2019-04-05T05:24:05.997Z,4.50
2019-04-05T05:26:36.050Z,4.40
2019-04-05T05:34:05.049Z,4.40
2019-04-05T05:36:35.308Z,4.40
2019-04-05T05:39:07.191Z,2.40
2019-04-05T05:41:37.015Z,5.50
2019-04-05T05:46:35.538Z,6.40
2019-04-05T05:49:05.471Z,4.20
2019-04-05T05:51:35.045Z,4.20
2019-04-05T05:54:04.701Z,4.00
2019-04-05T05:56:34.665Z,3.90
2019-04-05T05:59:05.345Z,3.80
2019-04-05T06:01:34.902Z,3.80
2019-04-05T06:04:05.285Z,4.40
2019-04-05T06:06:35.202Z,3.80
2019-04-05T06:09:07.449Z,3.70
2019-04-05T06:11:37.301Z,3.60
2019-04-05T06:16:45.762Z,3.70
2019-04-05T06:21:36.162Z,3.80
2019-04-05T06:24:05.697Z,3.90
2019-04-05T06:26:35.525Z,4.00
2019-04-05T06:29:05.284Z,4.10
2019-04-05T06:39:02.022Z,4.80
2019-04-05T06:41:32.278Z,5.40
2019-04-05T06:44:01.847Z,4.90
2019-04-05T06:46:31.398Z,5.20
2019-04-05T06:49:02.127Z,5.20
2019-04-05T06:51:31.674Z,5.40
2019-04-05T06:54:03.394Z,5.60
2019-04-05T06:56:32.809Z,5.70
2019-04-05T06:59:02.371Z,6.20
2019-04-05T07:01:32.493Z,9.10
2019-04-05T07:04:02.455Z,9.00
2019-04-05T07:06:32.053Z,10.70
2019-04-05T07:09:01.605Z,11.40
2019-04-05T07:11:31.441Z,11.80
2019-04-05T07:14:01.020Z,13.20
2019-04-05T07:16:30.568Z,13.50
2019-04-05T07:23:58.380Z,13.60
2019-04-05T07:26:28.244Z,14.30
2019-04-05T07:28:57.805Z,13.20
2019-04-05T07:31:27.416Z,13.60
2019-04-05T07:33:57.264Z,14.90
2019-04-05T07:38:55.759Z,15.80
2019-04-05T07:41:25.778Z,15.20
2019-04-05T07:43:55.377Z,15.90
2019-04-05T07:46:24.923Z,16.90
2019-04-05T07:48:54.761Z,18.50
2019-04-05T07:51:24.471Z,18.10
2019-04-05T07:53:54.031Z,17.70
2019-04-05T08:02:41.219Z,17.40
2019-04-05T08:05:10.752Z,17.70
2019-04-05T08:07:44.197Z,16.40
2019-04-05T08:10:13.892Z,16.00
2019-04-05T08:17:41.397Z,14.00
2019-04-05T08:20:11.345Z,12.40
2019-04-05T08:25:09.825Z,11.90
2019-04-05T08:30:08.688Z,14.30
2019-04-05T08:32:38.275Z,15.20
2019-04-05T08:37:36.817Z,16.00
2019-04-05T08:40:06.526Z,16.00
2019-04-05T08:42:36.362Z,15.60
2019-04-05T08:47:35.044Z,15.80
2019-04-05T08:50:05.662Z,15.00
2019-04-05T08:52:36.072Z,16.60
2019-04-05T08:57:34.845Z,12.80
2019-04-05T09:00:04.709Z,12.10
2019-04-05T09:11:21.245Z,10.90
2019-04-05T09:13:51.057Z,10.60
2019-04-05T09:18:49.721Z,10.60
2019-04-05T09:26:17.418Z,11.00
2019-04-05T09:28:51.537Z,11.30
2019-04-05T09:31:21.153Z,13.00
2019-04-05T09:33:50.699Z,11.80
2019-04-05T09:36:20.533Z,10.60
2019-04-05T09:38:50.172Z,11.20
2019-04-05T09:41:19.750Z,10.60
2019-04-05T09:43:49.575Z,11.20
2019-04-05T09:46:19.207Z,10.30
2019-04-05T09:48:48.741Z,10.70
2019-04-05T09:53:47.693Z,10.50
2019-04-05T09:58:46.454Z,10.30
2019-04-05T10:01:16.932Z,11.20
2019-04-05T10:03:46.492Z,10.00
2019-04-05T10:06:16.074Z,9.90
2019-04-05T10:08:46.272Z,10.20
2019-04-05T10:11:16.421Z,9.20
2019-04-05T10:13:46.382Z,10.70
2019-04-05T10:26:12.213Z,11.10
2019-04-05T10:28:43.784Z,11.00
2019-04-05T10:31:13.525Z,10.90
2019-04-05T10:33:46.060Z,9.50
2019-04-05T10:41:14.137Z,10.80
2019-04-05T10:43:43.669Z,10.30
2019-04-05T10:46:13.269Z,9.80
2019-04-05T10:48:43.098Z,10.10
2019-04-05T10:53:41.616Z,10.00
2019-04-05T10:58:40.369Z,10.30
2019-04-05T11:01:09.949Z,10.50
2019-04-05T11:03:39.821Z,10.50
2019-04-05T11:06:09.366Z,11.10
2019-04-05T11:08:39.129Z,11.00
2019-04-05T11:11:09.275Z,11.00
2019-04-05T11:13:38.871Z,9.10
2019-04-05T11:16:08.485Z,9.40
2019-04-05T11:23:39.820Z,10.40
2019-04-05T11:36:09.066Z,11.10
2019-04-05T11:38:38.825Z,10.80
2019-04-05T11:41:09.603Z,10.90
2019-04-05T11:43:40.336Z,11.50
2019-04-05T11:46:11.208Z,10.80
2019-04-05T11:51:13.347Z,10.70
2019-04-05T11:53:42.972Z,10.40
2019-04-05T11:56:14.956Z,10.40
2019-04-05T12:01:29.925Z,10.40
2019-04-05T12:04:00.886Z,10.20
2019-04-05T12:06:34.972Z,11.50
2019-04-05T12:09:04.778Z,10.00
2019-04-05T12:11:34.957Z,10.20
2019-04-05T12:16:37.271Z,10.60
2019-04-05T12:19:07.413Z,10.60
2019-04-05T12:26:38.420Z,11.30
2019-04-05T12:34:06.901Z,11.10
2019-04-05T12:36:36.506Z,11.00
2019-04-05T12:39:08.459Z,10.70
2019-04-05T12:41:40.956Z,10.40
2019-04-05T12:44:14.332Z,10.40
2019-04-05T12:46:41.348Z,10.30
2019-04-05T12:54:09.088Z,10.30
2019-04-05T12:56:38.691Z,11.00
2019-04-05T12:59:08.305Z,10.20
2019-04-05T13:04:07.393Z,10.30
2019-04-05T13:09:08.968Z,10.50
2019-04-05T13:11:38.933Z,10.70
2019-04-05T13:14:08.738Z,10.90
2019-04-05T13:16:38.813Z,10.30
2019-04-05T13:19:08.805Z,10.20
2019-04-05T13:21:38.409Z,9.80
2019-04-05T13:24:10.069Z,10.20
2019-04-05T13:26:41.670Z,10.50
2019-04-05T13:31:39.827Z,10.40
2019-04-05T13:34:09.741Z,10.30
2019-04-05T13:36:39.299Z,10.20
2019-04-05T13:39:10.087Z,11.40
2019-04-05T13:44:09.101Z,10.10
2019-04-05T13:46:39.543Z,10.80
2019-04-05T13:49:10.904Z,9.90
2019-04-05T13:51:42.126Z,9.70
2019-04-05T13:54:11.875Z,9.80
2019-04-05T13:56:41.855Z,9.70
2019-04-05T13:59:11.468Z,9.70
2019-04-05T14:01:41.900Z,8.80
2019-04-05T14:04:11.662Z,9.50
2019-04-05T14:06:41.224Z,9.60
2019-04-05T14:11:41.041Z,9.80
2019-04-05T14:19:12.136Z,9.80
2019-04-05T14:21:47.418Z,9.90
2019-04-05T14:24:15.211Z,9.70
2019-04-05T14:29:13.667Z,9.50
2019-04-05T14:34:14.273Z,9.80
2019-04-05T14:39:13.150Z,9.90
2019-04-05T14:41:42.715Z,9.80
2019-04-05T14:44:14.762Z,9.80
2019-04-05T14:49:13.073Z,8.90
2019-04-05T14:56:42.401Z,9.80
2019-04-05T14:59:12.036Z,9.80
2019-04-05T15:01:41.853Z,9.90
2019-04-05T15:04:12.095Z,10.80
2019-04-05T15:06:41.853Z,9.90
2019-04-05T15:09:11.729Z,9.80
2019-04-05T15:11:42.081Z,9.70
2019-04-05T15:14:11.642Z,9.80
2019-04-05T15:16:41.611Z,10.00
2019-04-05T15:19:11.152Z,10.10
2019-04-05T15:21:40.714Z,10.00
2019-04-05T15:26:39.921Z,8.70
2019-04-05T15:29:09.501Z,10.70
2019-04-05T15:31:39.437Z,9.90
2019-04-05T15:36:37.941Z,9.10
2019-04-05T15:39:09.916Z,9.90
2019-04-05T15:41:39.599Z,11.30
2019-04-05T15:44:09.144Z,9.80
2019-04-05T15:46:39.040Z,9.70
2019-04-05T15:49:08.604Z,8.30
2019-04-05T15:51:38.399Z,9.80
2019-04-05T15:59:06.574Z,9.60
2019-04-05T16:01:36.520Z,9.60
2019-04-05T16:04:06.305Z,9.60
2019-04-05T16:06:35.878Z,9.50
2019-04-05T16:14:07.064Z,9.10
2019-04-05T16:21:34.971Z,9.20
2019-04-05T16:26:36.074Z,9.20
2019-04-05T16:29:05.992Z,9.20
2019-04-05T16:34:05.116Z,9.10
2019-04-05T16:36:35.375Z,9.10
2019-04-05T16:39:21.025Z,10.20
2019-04-05T16:44:20.720Z,10.30
2019-04-05T16:49:27.033Z,9.00
2019-04-05T16:54:29.184Z,8.90
2019-04-05T16:59:29.254Z,8.50
2019-04-05T17:01:59.624Z,9.00
2019-04-05T17:09:28.918Z,9.00
2019-04-05T17:11:59.054Z,9.00
2019-04-05T17:17:01.902Z,9.00
2019-04-05T17:19:31.917Z,9.00
2019-04-05T17:22:02.010Z,9.00
2019-04-05T17:24:32.348Z,9.10
2019-04-05T17:32:02.344Z,8.80
2019-04-05T17:34:32.201Z,10.50
2019-04-05T17:44:33.896Z,8.80
2019-04-05T17:47:03.988Z,8.80
2019-04-05T17:49:34.063Z,8.80
2019-04-05T17:54:35.006Z,8.70
2019-04-05T17:59:34.932Z,8.70
2019-04-05T18:04:34.328Z,8.50
2019-04-05T18:12:03.416Z,8.20
2019-04-05T18:14:37.700Z,8.10
2019-04-05T18:19:36.663Z,8.20
2019-04-05T18:22:08.653Z,8.20
2019-04-05T18:27:13.932Z,6.50
2019-04-05T18:32:16.369Z,6.70
2019-04-05T18:34:45.996Z,8.10
2019-04-05T18:39:46.170Z,8.20
2019-04-05T18:44:47.810Z,8.00
2019-04-05T18:49:48.251Z,8.00
2019-04-05T18:54:47.380Z,7.90
2019-04-05T18:59:49.786Z,8.00
2019-04-05T19:02:22.087Z,8.00
2019-04-05T19:04:51.613Z,8.00
2019-04-05T19:09:51.864Z,8.10
2019-04-05T19:12:21.474Z,6.90
2019-04-05T19:19:51.539Z,8.20
2019-04-05T19:22:22.413Z,8.10
2019-04-05T19:24:52.078Z,8.00
2019-04-05T19:27:21.746Z,8.00
2019-04-05T19:29:51.737Z,9.90
2019-04-05T19:50:00.820Z,7.90
2019-04-05T19:54:59.516Z,7.80
2019-04-05T19:57:29.418Z,7.80
2019-04-05T19:59:59.160Z,7.80
2019-04-05T20:02:29.166Z,7.90
2019-04-05T20:04:59.285Z,7.90
2019-04-05T20:07:29.113Z,7.90
2019-04-05T20:12:28.044Z,6.30
2019-04-05T20:17:27.140Z,7.70
2019-04-05T20:19:56.992Z,7.80
2019-04-05T20:22:26.697Z,7.70
2019-04-05T20:24:56.466Z,7.80
2019-04-05T20:27:26.312Z,7.80
2019-04-05T20:29:56.209Z,7.80
2019-04-05T20:37:26.536Z,7.80
2019-04-05T20:39:56.127Z,7.70
2019-04-05T20:42:29.545Z,7.70
2019-04-05T20:44:59.153Z,7.80
2019-04-05T20:47:28.694Z,7.80
2019-04-05T20:49:58.701Z,7.60
2019-04-05T20:52:28.335Z,7.70
2019-04-05T20:57:27.285Z,7.80
2019-04-05T20:59:56.973Z,7.80
2019-04-05T21:02:26.514Z,7.80
2019-04-05T21:04:56.367Z,7.90
2019-04-05T21:14:53.241Z,7.90
2019-04-05T21:17:23.145Z,7.90
2019-04-05T21:19:53.090Z,7.70
2019-04-05T21:22:22.724Z,7.80
2019-04-05T21:32:20.491Z,7.60
2019-04-05T21:34:50.509Z,7.50
2019-04-05T21:37:20.177Z,7.40
2019-04-05T21:39:49.734Z,7.40
2019-04-05T21:47:23.768Z,7.50
2019-04-05T21:49:53.806Z,7.60
2019-04-05T21:52:23.379Z,7.60
2019-04-05T21:54:53.113Z,7.60
2019-04-05T22:02:21.814Z,7.50
2019-04-05T22:09:49.933Z,7.60
2019-04-05T22:12:19.777Z,7.60
2019-04-05T22:14:49.338Z,7.60
2019-04-05T22:17:18.992Z,7.50
2019-04-05T22:22:18.002Z,6.00
2019-04-05T22:24:58.496Z,7.60
2019-04-05T22:27:19.066Z,7.60
2019-04-05T22:32:19.574Z,7.60
2019-04-05T22:34:50.833Z,7.60
2019-04-05T22:37:20.382Z,7.60
2019-04-05T22:39:49.990Z,7.60
2019-04-05T22:42:19.520Z,7.50
2019-04-05T22:44:49.177Z,7.50
2019-04-05T22:47:19.393Z,7.50
2019-04-05T22:49:48.959Z,7.50
2019-04-05T22:52:18.575Z,7.50
2019-04-05T22:57:18.706Z,7.50
2019-04-05T23:02:17.788Z,7.30
2019-04-05T23:07:17.714Z,7.30
2019-04-05T23:09:47.669Z,7.30
2019-04-05T23:12:19.476Z,7.40
2019-04-05T23:14:49.042Z,5.60
2019-04-05T23:17:19.000Z,7.30
2019-04-05T23:22:18.242Z,7.10
2019-04-05T23:24:48.334Z,7.10
2019-04-05T23:27:17.989Z,7.00
2019-04-05T23:29:47.675Z,9.00
2019-04-05T23:32:18.824Z,6.90
2019-04-05T23:37:18.154Z,7.00
2019-04-05T23:39:50.693Z,8.80
2019-04-05T23:42:20.272Z,7.20
2019-04-05T23:47:19.480Z,6.70
2019-04-05T23:52:18.009Z,7.00
2019-04-05T23:54:48.137Z,7.10
2019-04-05T23:57:17.944Z,7.10
2019-04-05T23:59:47.573Z,7.10
